createdAt,value
2019-02-05T00:01:33.999Z,5.00
2019-02-05T00:04:02.268Z,5.10
2019-02-05T00:06:31.608Z,5.00
2019-02-05T00:09:00.945Z,4.90
2019-02-05T00:11:30.235Z,4.90
2019-02-05T00:13:59.602Z,4.80
2019-02-05T00:16:28.936Z,4.70
2019-02-05T00:18:58.236Z,4.70
2019-02-05T00:21:27.577Z,4.70
2019-02-05T00:23:57.001Z,4.70
2019-02-05T00:26:26.345Z,4.70
2019-02-05T00:28:55.773Z,4.70
2019-02-05T00:31:25.155Z,4.70
2019-02-05T00:33:54.524Z,4.80
2019-02-05T00:36:24.507Z,4.70
2019-02-05T00:38:53.835Z,4.70
2019-02-05T00:41:23.197Z,4.60
2019-02-05T00:43:52.556Z,4.60
2019-02-05T00:46:21.952Z,4.50
2019-02-05T00:48:51.352Z,4.40
2019-02-05T00:51:21.229Z,4.50
2019-02-05T00:53:50.596Z,4.50
2019-02-05T00:56:20.853Z,4.50
2019-02-05T00:58:50.239Z,4.50
2019-02-05T01:01:19.625Z,4.50
2019-02-05T01:03:48.947Z,4.50
2019-02-05T01:06:18.263Z,4.40
2019-02-05T01:08:47.583Z,4.40
2019-02-05T01:11:16.879Z,4.40
2019-02-05T01:13:46.239Z,4.40
2019-02-05T01:16:15.599Z,4.50
2019-02-05T01:18:45.020Z,4.50
2019-02-05T01:21:14.465Z,4.40
2019-02-05T01:23:43.744Z,4.20
2019-02-05T01:26:13.135Z,4.20
2019-02-05T01:28:42.476Z,4.10
2019-02-05T01:31:12.407Z,4.20
2019-02-05T01:33:42.307Z,4.20
2019-02-05T01:36:11.598Z,4.20
2019-02-05T01:38:41.009Z,4.10
2019-02-05T01:41:10.334Z,4.20
2019-02-05T01:43:39.628Z,4.10
2019-02-05T01:46:08.949Z,4.10
2019-02-05T01:48:38.359Z,4.10
2019-02-05T01:51:07.736Z,4.10
2019-02-05T01:53:37.096Z,4.10
2019-02-05T01:56:06.480Z,4.00
2019-02-05T01:58:36.781Z,4.00
2019-02-05T02:01:06.815Z,4.00
2019-02-05T02:03:36.139Z,3.90
2019-02-05T02:06:05.440Z,4.00
2019-02-05T02:08:34.903Z,4.00
2019-02-05T02:11:04.251Z,4.00
2019-02-05T02:13:33.758Z,4.00
2019-02-05T02:16:03.107Z,3.90
2019-02-05T02:18:33.447Z,3.90
2019-02-05T02:21:03.184Z,3.90
2019-02-05T02:23:33.348Z,3.90
2019-02-05T02:26:03.095Z,3.90
2019-02-05T02:28:32.459Z,3.80
2019-02-05T02:31:01.772Z,3.80
2019-02-05T02:33:31.192Z,3.80
2019-02-05T02:36:00.524Z,3.80
2019-02-05T02:38:29.872Z,3.70
2019-02-05T02:40:59.176Z,3.60
2019-02-05T02:43:28.580Z,3.50
2019-02-05T02:45:57.922Z,3.50
2019-02-05T02:48:27.245Z,3.40
2019-02-05T02:50:56.616Z,3.40
2019-02-05T02:53:26.603Z,3.50
2019-02-05T02:55:55.922Z,3.50
2019-02-05T02:58:25.278Z,3.40
2019-02-05T03:00:54.631Z,3.30
2019-02-05T03:03:23.916Z,3.40
2019-02-05T03:05:53.248Z,3.40
2019-02-05T03:08:22.593Z,3.40
2019-02-05T03:10:52.050Z,3.40
2019-02-05T03:13:21.832Z,3.40
2019-02-05T03:15:51.181Z,3.60
2019-02-05T03:18:20.564Z,3.60
2019-02-05T03:20:49.869Z,3.50
2019-02-05T03:23:19.333Z,3.50
2019-02-05T03:25:49.473Z,3.50
2019-02-05T03:28:18.835Z,3.40
2019-02-05T03:30:49.182Z,3.40
2019-02-05T03:33:18.462Z,3.40
2019-02-05T03:35:48.240Z,3.50
2019-02-05T03:38:17.600Z,3.50
2019-02-05T03:41:17.704Z,3.50
2019-02-05T03:43:47.013Z,3.50
2019-02-05T03:46:17.824Z,3.50
2019-02-05T03:48:48.658Z,3.40
2019-02-05T03:51:36.744Z,3.50
2019-02-05T03:54:24.641Z,3.50
2019-02-05T03:57:31.742Z,3.50
2019-02-05T04:00:13.489Z,3.50
2019-02-05T04:03:13.321Z,3.50
2019-02-05T04:08:37.265Z,3.60
2019-02-05T04:12:25.569Z,3.50
2019-02-05T04:15:11.499Z,3.40
2019-02-05T04:18:06.693Z,3.40
2019-02-05T04:21:03.324Z,3.30
2019-02-05T04:24:55.728Z,3.40
2019-02-05T04:27:45.163Z,3.40
2019-02-05T04:30:25.250Z,3.30
2019-02-05T04:34:20.255Z,3.30
2019-02-05T04:37:39.817Z,3.40
2019-02-05T04:40:38.211Z,3.30
2019-02-05T04:43:26.628Z,3.30
2019-02-05T04:46:46.786Z,3.40
2019-02-05T04:49:41.418Z,3.40
2019-02-05T04:54:46.148Z,3.40
2019-02-05T04:57:41.796Z,3.40
2019-02-05T05:01:24.333Z,3.40
2019-02-05T05:04:12.848Z,3.30
2019-02-05T05:09:10.848Z,3.30
2019-02-05T05:11:41.227Z,3.40
2019-02-05T05:14:10.528Z,3.30
2019-02-05T05:16:39.820Z,3.30
2019-02-05T05:19:09.305Z,3.40
2019-02-05T05:21:38.681Z,3.40
2019-02-05T05:24:08.034Z,3.50
2019-02-05T05:26:37.421Z,3.60
2019-02-05T05:29:07.287Z,3.50
2019-02-05T05:31:36.611Z,3.60
2019-02-05T05:34:05.919Z,3.60
2019-02-05T05:36:35.315Z,3.80
2019-02-05T05:39:07.316Z,3.80
2019-02-05T05:41:36.631Z,3.90
2019-02-05T05:44:09.511Z,3.80
2019-02-05T05:46:36.290Z,3.90
2019-02-05T05:49:05.583Z,3.90
2019-02-05T05:51:34.958Z,3.90
2019-02-05T05:54:04.455Z,4.00
2019-02-05T05:56:33.808Z,3.90
2019-02-05T05:59:03.149Z,3.90
2019-02-05T06:01:32.547Z,3.90
2019-02-05T06:04:01.878Z,3.80
2019-02-05T06:06:31.248Z,3.80
2019-02-05T06:09:01.316Z,3.80
2019-02-05T06:11:31.177Z,3.70
2019-02-05T06:14:00.680Z,3.70
2019-02-05T06:16:29.932Z,3.70
2019-02-05T06:19:00.117Z,3.80
2019-02-05T06:21:29.430Z,3.80
2019-02-05T06:23:58.794Z,3.80
2019-02-05T06:26:28.209Z,3.70
2019-02-05T06:28:57.603Z,3.80
2019-02-05T06:31:27.000Z,3.80
2019-02-05T06:33:56.402Z,3.90
2019-02-05T06:36:25.727Z,4.00
2019-02-05T06:38:55.068Z,4.00
2019-02-05T06:41:24.404Z,3.90
2019-02-05T06:43:54.671Z,4.10
2019-02-05T06:46:23.959Z,4.10
2019-02-05T06:48:54.563Z,4.10
2019-02-05T06:51:31.176Z,4.10
2019-02-05T06:54:00.624Z,4.00
2019-02-05T06:56:30.027Z,4.10
2019-02-05T06:58:59.335Z,4.20
2019-02-05T07:01:28.708Z,4.30
2019-02-05T07:03:57.990Z,4.20
2019-02-05T07:06:27.432Z,4.30
2019-02-05T07:08:56.780Z,4.30
2019-02-05T07:11:27.012Z,4.40
2019-02-05T07:13:59.347Z,4.40
2019-02-05T07:16:28.666Z,4.30
2019-02-05T07:18:58.968Z,4.30
2019-02-05T07:21:28.327Z,4.30
2019-02-05T07:23:57.636Z,4.20
2019-02-05T07:26:26.901Z,4.30
2019-02-05T07:28:58.441Z,4.30
2019-02-05T07:31:25.686Z,4.30
2019-02-05T07:33:54.979Z,4.30
2019-02-05T07:36:24.334Z,4.20
2019-02-05T07:38:53.704Z,4.20
2019-02-05T07:41:22.999Z,4.20
2019-02-05T07:43:52.493Z,4.20
2019-02-05T07:46:21.827Z,4.30
2019-02-05T07:48:51.223Z,4.50
2019-02-05T07:51:20.668Z,4.60
2019-02-05T07:53:50.064Z,4.70
2019-02-05T07:56:19.447Z,4.80
2019-02-05T07:58:48.880Z,4.70
2019-02-05T08:01:18.213Z,4.80
2019-02-05T08:03:47.517Z,4.80
2019-02-05T08:06:16.843Z,4.70
2019-02-05T08:08:46.144Z,4.70
2019-02-05T08:11:15.617Z,4.80
2019-02-05T08:13:44.966Z,4.70
2019-02-05T08:16:14.344Z,4.80
2019-02-05T08:18:43.681Z,4.70
2019-02-05T08:21:13.091Z,4.60
2019-02-05T08:23:42.491Z,4.70
2019-02-05T08:26:11.916Z,4.60
2019-02-05T08:28:41.308Z,4.50
2019-02-05T08:31:10.704Z,4.40
2019-02-05T08:33:40.116Z,4.40
2019-02-05T08:36:10.991Z,4.40
2019-02-05T08:38:40.342Z,4.50
2019-02-05T08:41:09.690Z,4.60
2019-02-05T08:43:39.064Z,4.70
2019-02-05T08:46:08.487Z,4.70
2019-02-05T08:48:37.947Z,4.60
2019-02-05T08:51:07.275Z,4.70
2019-02-05T08:53:39.536Z,4.60
2019-02-05T08:56:08.983Z,4.70
2019-02-05T08:58:38.399Z,4.70
2019-02-05T09:01:07.837Z,4.80
2019-02-05T09:03:37.192Z,4.80
2019-02-05T09:06:06.508Z,4.90
2019-02-05T09:08:35.824Z,5.00
2019-02-05T09:11:06.047Z,5.10
2019-02-05T09:13:35.333Z,5.00
2019-02-05T09:16:04.671Z,5.00
2019-02-05T09:18:34.068Z,5.00
2019-02-05T09:21:03.448Z,4.90
2019-02-05T09:23:32.805Z,5.10
2019-02-05T09:26:02.180Z,5.20
2019-02-05T09:28:31.591Z,5.20
2019-02-05T09:31:01.089Z,5.40
2019-02-05T09:33:30.464Z,5.50
2019-02-05T09:35:59.796Z,5.30
2019-02-05T09:38:29.129Z,5.40
2019-02-05T09:40:58.580Z,5.40
2019-02-05T09:43:27.924Z,5.40
2019-02-05T09:45:57.325Z,5.50
2019-02-05T09:48:26.671Z,5.50
2019-02-05T09:51:02.763Z,5.60
2019-02-05T09:53:32.131Z,5.70
2019-02-05T09:56:01.637Z,5.60
2019-02-05T09:58:31.068Z,5.50
2019-02-05T10:01:00.386Z,5.70
2019-02-05T10:03:29.903Z,6.00
2019-02-05T10:05:59.332Z,5.90
2019-02-05T10:08:28.712Z,6.10
2019-02-05T10:10:58.081Z,6.10
2019-02-05T10:13:27.427Z,6.20
2019-02-05T10:15:56.813Z,6.20
2019-02-05T10:18:26.809Z,6.20
2019-02-05T10:20:56.220Z,6.30
2019-02-05T10:23:26.816Z,6.30
2019-02-05T10:25:56.128Z,6.20
2019-02-05T10:28:25.520Z,6.30
2019-02-05T10:30:54.863Z,6.20
2019-02-05T10:33:24.328Z,6.20
2019-02-05T10:35:53.721Z,6.20
2019-02-05T10:38:23.087Z,6.20
2019-02-05T10:40:53.059Z,6.20
2019-02-05T10:43:22.503Z,6.20
2019-02-05T10:45:51.986Z,6.20
2019-02-05T10:48:21.340Z,6.20
2019-02-05T10:50:51.231Z,6.40
2019-02-05T10:53:20.591Z,6.40
2019-02-05T10:55:49.909Z,6.40
2019-02-05T10:58:19.688Z,6.60
2019-02-05T11:00:49.200Z,6.70
2019-02-05T11:03:18.546Z,6.90
2019-02-05T11:05:48.317Z,7.20
2019-02-05T11:08:17.831Z,7.10
2019-02-05T11:10:47.057Z,6.90
2019-02-05T11:13:18.835Z,7.10
2019-02-05T11:15:45.731Z,7.10
2019-02-05T11:18:15.822Z,7.10
2019-02-05T11:20:45.178Z,7.00
2019-02-05T11:23:15.179Z,7.10
2019-02-05T11:25:44.702Z,6.90
2019-02-05T11:28:14.112Z,6.80
2019-02-05T11:30:45.471Z,6.90
2019-02-05T11:33:14.839Z,6.80
2019-02-05T11:35:44.176Z,6.90
2019-02-05T11:38:13.834Z,6.90
2019-02-05T11:40:43.148Z,7.00
2019-02-05T11:43:12.477Z,7.10
2019-02-05T11:45:41.800Z,7.30
2019-02-05T11:48:16.292Z,7.30
2019-02-05T11:50:45.624Z,7.20
2019-02-05T11:53:14.994Z,7.30
2019-02-05T11:55:45.079Z,7.20
2019-02-05T11:58:15.412Z,7.30
2019-02-05T12:01:03.284Z,7.00
2019-02-05T12:03:33.200Z,7.00
2019-02-05T12:06:02.943Z,7.10
2019-02-05T12:08:32.260Z,7.10
2019-02-05T12:11:01.564Z,7.10
2019-02-05T12:13:30.911Z,7.10
2019-02-05T12:16:00.280Z,7.20
2019-02-05T12:18:29.892Z,7.30
2019-02-05T12:20:59.332Z,7.40
2019-02-05T12:23:28.663Z,7.50
2019-02-05T12:25:57.967Z,7.40
2019-02-05T12:28:27.262Z,7.50
2019-02-05T12:30:56.659Z,7.40
2019-02-05T12:33:26.086Z,7.30
2019-02-05T12:35:56.452Z,7.40
2019-02-05T12:38:25.744Z,7.50
2019-02-05T12:40:55.277Z,7.70
2019-02-05T12:43:24.576Z,7.60
2019-02-05T12:45:53.923Z,7.50
2019-02-05T12:48:23.283Z,7.50
2019-02-05T12:50:52.719Z,7.40
2019-02-05T12:53:23.045Z,7.70
2019-02-05T12:55:52.424Z,7.90
2019-02-05T12:58:22.631Z,7.90
2019-02-05T13:00:59.219Z,7.70
2019-02-05T13:03:24.145Z,7.70
2019-02-05T13:05:54.692Z,7.90
2019-02-05T13:08:24.657Z,8.00
2019-02-05T13:10:54.394Z,8.10
2019-02-05T13:13:23.766Z,8.00
2019-02-05T13:15:53.096Z,8.20
2019-02-05T13:18:22.437Z,8.40
2019-02-05T13:20:51.781Z,8.60
2019-02-05T13:23:21.136Z,8.40
2019-02-05T13:25:50.491Z,8.00
2019-02-05T13:28:20.832Z,7.80
2019-02-05T13:30:50.335Z,7.60
2019-02-05T13:33:19.749Z,7.70
2019-02-05T13:35:49.072Z,7.80
2019-02-05T13:38:18.496Z,7.90
2019-02-05T13:40:47.828Z,8.00
2019-02-05T13:43:17.150Z,7.90
2019-02-05T13:45:46.597Z,7.70
2019-02-05T13:48:15.881Z,7.90
2019-02-05T13:50:45.775Z,7.90
2019-02-05T13:53:15.105Z,8.20
2019-02-05T13:55:45.367Z,8.10
2019-02-05T13:58:15.618Z,8.40
2019-02-05T14:00:51.820Z,8.90
2019-02-05T14:03:21.215Z,9.00
2019-02-05T14:05:50.563Z,9.10
2019-02-05T14:08:19.901Z,9.40
2019-02-05T14:10:50.478Z,9.40
2019-02-05T14:13:20.055Z,9.40
2019-02-05T14:15:52.333Z,9.20
2019-02-05T14:18:22.752Z,9.20
2019-02-05T14:20:51.704Z,9.40
2019-02-05T14:23:21.208Z,9.10
2019-02-05T14:25:51.537Z,9.20
2019-02-05T14:28:21.039Z,9.10
2019-02-05T14:30:55.174Z,9.10
2019-02-05T14:33:26.691Z,9.30
2019-02-05T14:35:56.127Z,9.40
2019-02-05T14:38:25.452Z,9.30
2019-02-05T14:40:54.872Z,9.30
2019-02-05T14:43:24.252Z,9.30
2019-02-05T14:45:53.666Z,9.40
2019-02-05T14:48:23.075Z,9.30
2019-02-05T14:50:52.457Z,9.20
2019-02-05T14:53:22.023Z,9.20
2019-02-05T14:55:51.397Z,9.30
2019-02-05T14:58:20.872Z,9.10
2019-02-05T15:00:50.285Z,9.10
2019-02-05T15:03:19.689Z,9.00
2019-02-05T15:05:49.256Z,8.90
2019-02-05T15:08:19.704Z,8.90
2019-02-05T15:10:49.504Z,9.00
2019-02-05T15:13:18.919Z,9.00
2019-02-05T15:15:48.275Z,8.90
2019-02-05T15:18:21.016Z,8.80
2019-02-05T15:20:50.993Z,8.80
2019-02-05T15:23:20.782Z,8.50
2019-02-05T15:25:50.131Z,8.40
2019-02-05T15:28:19.463Z,8.30
2019-02-05T15:30:49.514Z,8.20
2019-02-05T15:33:24.516Z,8.00
2019-02-05T15:35:59.498Z,7.70
2019-02-05T15:38:28.882Z,7.80
2019-02-05T15:40:58.231Z,7.90
2019-02-05T15:43:27.727Z,7.90
2019-02-05T15:45:58.160Z,7.90
2019-02-05T15:48:27.531Z,7.90
2019-02-05T15:50:56.841Z,7.90
2019-02-05T15:53:26.221Z,7.80
2019-02-05T15:55:55.636Z,7.90
2019-02-05T15:58:24.933Z,7.80
2019-02-05T16:00:54.295Z,7.80
2019-02-05T16:03:23.760Z,7.80
2019-02-05T16:05:53.141Z,7.80
2019-02-05T16:08:22.508Z,7.90
2019-02-05T16:10:52.838Z,7.60
2019-02-05T16:13:22.269Z,7.60
2019-02-05T16:15:51.616Z,7.60
2019-02-05T16:18:21.032Z,7.70
2019-02-05T16:20:50.435Z,7.60
2019-02-05T16:23:19.768Z,7.70
2019-02-05T16:25:49.103Z,7.50
2019-02-05T16:28:18.530Z,7.60
2019-02-05T16:30:48.122Z,7.60
2019-02-05T16:33:18.348Z,7.40
2019-02-05T16:35:47.751Z,7.50
2019-02-05T16:38:17.174Z,7.60
2019-02-05T16:40:46.530Z,7.60
2019-02-05T16:43:15.833Z,7.60
2019-02-05T16:45:45.222Z,7.50
2019-02-05T16:48:15.243Z,7.40
2019-02-05T16:50:45.857Z,7.50
2019-02-05T16:53:15.276Z,7.50
2019-02-05T16:55:45.763Z,7.40
2019-02-05T16:58:15.256Z,7.30
2019-02-05T17:00:44.707Z,7.30
2019-02-05T17:03:14.047Z,7.40
2019-02-05T17:05:43.680Z,7.40
2019-02-05T17:08:13.009Z,7.40
2019-02-05T17:10:42.419Z,7.40
2019-02-05T17:13:12.228Z,7.30
2019-02-05T17:15:41.171Z,7.30
2019-02-05T17:18:10.532Z,7.30
2019-02-05T17:20:39.892Z,7.30
2019-02-05T17:23:09.293Z,7.40
2019-02-05T17:25:38.681Z,7.30
2019-02-05T17:28:08.087Z,7.30
2019-02-05T17:30:38.991Z,7.30
2019-02-05T17:33:08.358Z,7.30
2019-02-05T17:35:37.823Z,7.40
2019-02-05T17:38:09.274Z,7.40
2019-02-05T17:40:39.255Z,7.40
2019-02-05T17:43:08.902Z,7.40
2019-02-05T17:45:40.597Z,7.30
2019-02-05T17:48:13.894Z,7.30
2019-02-05T17:50:43.324Z,7.30
2019-02-05T17:53:12.590Z,7.30
2019-02-05T17:55:41.919Z,7.40
2019-02-05T17:58:12.228Z,7.40
2019-02-05T18:00:45.668Z,7.30
2019-02-05T18:03:14.984Z,7.30
2019-02-05T18:05:44.298Z,7.30
2019-02-05T18:08:14.152Z,7.30
2019-02-05T18:10:43.482Z,7.00
2019-02-05T18:13:12.880Z,6.90
2019-02-05T18:15:42.364Z,6.80
2019-02-05T18:18:11.795Z,6.80
2019-02-05T18:20:42.193Z,6.90
2019-02-05T18:23:11.516Z,7.00
2019-02-05T18:25:40.823Z,7.00
2019-02-05T18:28:10.139Z,7.10
2019-02-05T18:30:39.606Z,7.10
2019-02-05T18:33:08.944Z,7.10
2019-02-05T18:35:38.283Z,7.10
2019-02-05T18:38:10.635Z,7.10
2019-02-05T18:40:41.887Z,7.10
2019-02-05T18:43:11.222Z,7.10
2019-02-05T18:45:40.601Z,7.10
2019-02-05T18:48:09.995Z,7.20
2019-02-05T18:50:39.306Z,7.20
2019-02-05T18:53:11.560Z,7.20
2019-02-05T18:55:38.791Z,7.10
2019-02-05T18:58:09.700Z,7.10
2019-02-05T19:00:40.431Z,6.90
2019-02-05T19:03:15.689Z,7.00
2019-02-05T19:05:39.335Z,6.90
2019-02-05T19:08:09.097Z,6.70
2019-02-05T19:10:42.419Z,6.50
2019-02-05T19:13:15.300Z,6.50
2019-02-05T19:15:48.434Z,6.70
2019-02-05T19:18:22.062Z,6.80
2019-02-05T19:20:54.957Z,6.90
2019-02-05T19:23:27.557Z,7.00
2019-02-05T19:26:00.026Z,7.00
2019-02-05T19:28:31.470Z,7.10
2019-02-05T19:31:04.021Z,7.10
2019-02-05T19:33:33.446Z,7.20
2019-02-05T19:36:02.885Z,7.30
2019-02-05T19:38:32.268Z,7.30
2019-02-05T19:41:01.733Z,7.30
2019-02-05T19:43:31.128Z,7.40
2019-02-05T19:46:08.541Z,7.40
2019-02-05T19:48:42.796Z,7.50
2019-02-05T19:51:12.165Z,7.50
2019-02-05T19:53:41.537Z,7.50
2019-02-05T19:56:11.076Z,7.50
2019-02-05T19:58:40.449Z,7.60
2019-02-05T20:01:09.837Z,7.60
2019-02-05T20:03:39.340Z,7.60
2019-02-05T20:06:08.824Z,7.70
2019-02-05T20:08:38.196Z,7.70
2019-02-05T20:11:07.664Z,7.70
2019-02-05T20:13:40.545Z,7.70
2019-02-05T20:16:06.564Z,7.70
2019-02-05T20:18:36.128Z,7.70
2019-02-05T20:21:05.597Z,7.70
2019-02-05T20:23:35.198Z,7.70
2019-02-05T20:26:04.625Z,7.70
2019-02-05T20:28:34.121Z,7.70
2019-02-05T20:31:03.634Z,7.70
2019-02-05T20:33:33.195Z,7.60
2019-02-05T20:36:02.610Z,7.60
2019-02-05T20:38:32.028Z,7.60
2019-02-05T20:41:01.462Z,7.50
2019-02-05T20:43:30.926Z,7.50
2019-02-05T20:46:00.344Z,7.40
2019-02-05T20:48:29.999Z,7.40
2019-02-05T20:51:01.219Z,7.40
2019-02-05T20:53:28.721Z,7.50
2019-02-05T20:55:58.172Z,7.50
2019-02-05T20:58:27.594Z,7.60
2019-02-05T21:00:56.934Z,7.60
2019-02-05T21:03:26.479Z,7.50
2019-02-05T21:05:55.902Z,7.50
2019-02-05T21:08:25.392Z,7.60
2019-02-05T21:10:54.780Z,7.50
2019-02-05T21:13:24.252Z,7.40
2019-02-05T21:15:53.915Z,7.30
2019-02-05T21:18:23.570Z,7.30
2019-02-05T21:20:53.176Z,7.30
2019-02-05T21:23:22.813Z,7.30
2019-02-05T21:25:52.332Z,7.30
2019-02-05T21:28:21.843Z,7.30
2019-02-05T21:30:51.266Z,7.30
2019-02-05T21:33:21.056Z,7.30
2019-02-05T21:35:50.450Z,7.20
2019-02-05T21:38:19.799Z,7.20
2019-02-05T21:40:49.204Z,7.10
2019-02-05T21:43:18.645Z,7.10
2019-02-05T21:45:48.030Z,7.00
2019-02-05T21:48:17.592Z,7.00
2019-02-05T21:50:53.547Z,7.00
2019-02-05T21:53:22.925Z,6.90
2019-02-05T21:55:52.259Z,6.90
2019-02-05T21:58:21.988Z,6.90
2019-02-05T22:00:51.466Z,6.80
2019-02-05T22:03:21.043Z,6.80
2019-02-05T22:05:50.354Z,6.70
2019-02-05T22:08:19.790Z,6.70
2019-02-05T22:10:49.257Z,6.70
2019-02-05T22:13:18.684Z,6.60
2019-02-05T22:15:48.108Z,6.60
2019-02-05T22:18:17.440Z,6.50
2019-02-05T22:20:46.775Z,6.50
2019-02-05T22:23:16.152Z,6.40
2019-02-05T22:25:45.528Z,6.40
2019-02-05T22:28:15.215Z,6.40
2019-02-05T22:30:44.721Z,6.30
2019-02-05T22:33:14.041Z,6.20
2019-02-05T22:35:43.477Z,6.10
2019-02-05T22:38:12.856Z,6.10
2019-02-05T22:40:42.204Z,6.10
2019-02-05T22:43:11.663Z,6.00
2019-02-05T22:45:41.292Z,6.00
2019-02-05T22:48:10.544Z,6.00
2019-02-05T22:50:40.029Z,6.00
2019-02-05T22:53:09.464Z,5.90
2019-02-05T22:55:38.817Z,5.90
2019-02-05T22:58:08.151Z,5.80
2019-02-05T23:01:51.419Z,5.80
2019-02-05T23:04:50.781Z,5.80
2019-02-05T23:07:18.833Z,5.60
2019-02-05T23:12:13.475Z,5.60
2019-02-05T23:14:42.849Z,5.60
2019-02-05T23:17:12.245Z,5.50
2019-02-05T23:19:41.568Z,5.40
2019-02-05T23:22:10.952Z,5.40
2019-02-05T23:24:40.288Z,5.30
2019-02-05T23:27:09.628Z,5.20
2019-02-05T23:29:39.053Z,5.20
2019-02-05T23:32:08.489Z,5.20
2019-02-05T23:34:37.861Z,5.20
2019-02-05T23:37:07.172Z,5.20
2019-02-05T23:39:36.547Z,5.10
2019-02-05T23:42:05.943Z,5.10
2019-02-05T23:44:35.340Z,5.10
2019-02-05T23:47:04.708Z,5.00
2019-02-05T23:49:34.138Z,4.90
2019-02-05T23:52:03.503Z,4.90
2019-02-05T23:54:32.920Z,4.90
2019-02-05T23:57:02.245Z,4.90
2019-02-05T23:59:31.676Z,5.00
